Time;durP1;ratioP1;P1;durP2;ratioP2;P2;SDS_P1;SDS_P2;PMS_P1;PMS_P2;Temp;Humidity;BMP_temperature;BMP_pressure;BME280_temperature;BME280_humidity;BME280_pressure;Samples;Min_cycle;Max_cycle;Signal;HPM_P1;HPM_P2
2021/11/10 00:01:26;;;;;;;13.50;11.30;;;7.20;99.90;;;;;;5119194;28;20485;-68
2021/11/10 00:03:53;;;;;;;14.37;10.93;;;7.30;99.90;;;;;;5118818;28;20465;-68
2021/11/10 00:06:20;;;;;;;15.80;11.77;;;7.30;99.90;;;;;;5118991;28;20467;-69
2021/11/10 00:08:47;;;;;;;15.77;12.37;;;7.30;99.90;;;;;;5119256;28;20537;-68
2021/11/10 00:11:13;;;;;;;14.27;11.80;;;7.20;99.90;;;;;;5117409;28;20453;-69
2021/11/10 00:13:40;;;;;;;13.50;12.10;;;7.10;99.90;;;;;;5116894;28;20458;-69
2021/11/10 00:16:07;;;;;;;14.80;11.13;;;7.10;99.90;;;;;;5116531;28;20457;-67
2021/11/10 00:18:35;;;;;;;17.10;12.70;;;7.10;99.90;;;;;;5115896;28;20965;-69
2021/11/10 00:21:02;;;;;;;17.27;12.50;;;7.10;99.90;;;;;;5116731;28;20454;-69
2021/11/10 00:23:29;;;;;;;15.53;11.93;;;7.10;99.90;;;;;;5116243;28;20462;-69
2021/11/10 00:25:56;;;;;;;15.90;12.07;;;7.10;99.90;;;;;;5116475;28;20461;-69
2021/11/10 00:28:22;;;;;;;15.30;11.40;;;7.10;99.90;;;;;;5115909;28;20940;-69
2021/11/10 00:30:49;;;;;;;14.50;11.57;;;7.00;99.90;;;;;;5115524;28;20462;-68
2021/11/10 00:33:16;;;;;;;17.60;12.37;;;7.00;99.90;;;;;;5116476;28;20458;-68
2021/11/10 00:35:44;;;;;;;19.40;12.10;;;7.00;99.90;;;;;;5116464;28;20521;-68
2021/11/10 00:38:14;;;;;;;19.10;11.23;;;6.90;99.90;;;;;;5117112;28;20908;-68
2021/11/10 00:40:40;;;;;;;16.70;11.63;;;6.90;99.90;;;;;;5116685;28;20458;-68
2021/11/10 00:43:07;;;;;;;14.97;11.80;;;6.90;99.90;;;;;;5117863;28;20457;-68
2021/11/10 00:45:34;;;;;;;17.20;12.27;;;6.80;99.90;;;;;;5118072;28;20479;-68
2021/11/10 00:48:01;;;;;;;14.50;12.20;;;6.80;99.90;;;;;;5117919;28;20450;-68
2021/11/10 00:50:28;;;;;;;14.17;11.03;;;6.70;99.90;;;;;;5119481;28;20457;-68
2021/11/10 00:52:56;;;;;;;12.73;11.47;;;6.70;99.90;;;;;;5121923;28;20461;-68
2021/11/10 00:55:23;;;;;;;17.80;13.17;;;6.70;99.90;;;;;;5121723;28;20884;-68
2021/11/10 00:57:50;;;;;;;16.00;12.20;;;6.70;99.90;;;;;;5121602;28;20484;-68
2021/11/10 01:00:18;;;;;;;19.80;12.37;;;6.70;99.90;;;;;;5121909;28;20545;-68
2021/11/10 01:02:45;;;;;;;21.67;12.13;;;6.60;99.90;;;;;;5122739;28;20976;-68
2021/11/10 01:05:12;;;;;;;15.40;11.97;;;6.50;99.90;;;;;;5123724;28;20456;-68
2021/11/10 01:07:39;;;;;;;16.37;12.60;;;6.50;99.90;;;;;;5122930;28;20466;-68
2021/11/10 01:10:08;;;;;;;14.93;12.00;;;6.50;99.90;;;;;;5121427;27;20453;-68
2021/11/10 01:12:35;;;;;;;17.80;12.27;;;6.40;99.90;;;;;;5120852;28;20458;-68
2021/11/10 01:15:03;;;;;;;16.10;12.00;;;6.40;99.90;;;;;;5120657;28;20468;-69
2021/11/10 01:17:30;;;;;;;15.10;12.03;;;6.40;99.90;;;;;;5120299;28;20491;-68
2021/11/10 01:19:57;;;;;;;15.00;11.90;;;6.40;99.90;;;;;;5119648;28;20460;-68
2021/11/10 01:22:24;;;;;;;23.70;12.03;;;6.40;99.90;;;;;;5119174;28;20917;-69
2021/11/10 01:24:51;;;;;;;19.00;12.33;;;6.40;99.90;;;;;;5120073;28;20457;-68
2021/11/10 01:27:19;;;;;;;14.77;12.00;;;6.30;99.90;;;;;;5120308;28;20457;-69
2021/11/10 01:29:46;;;;;;;13.97;12.07;;;6.30;99.90;;;;;;5119416;28;20456;-68
2021/11/10 01:32:13;;;;;;;17.03;12.10;;;6.30;99.90;;;;;;5119261;28;20521;-69
2021/11/10 01:34:39;;;;;;;16.07;12.00;;;6.40;99.90;;;;;;5118869;28;20461;-69
2021/11/10 01:37:06;;;;;;;15.53;12.70;;;6.30;99.90;;;;;;5119101;28;20492;-68
2021/11/10 01:39:33;;;;;;;20.30;13.03;;;6.40;99.90;;;;;;5118799;28;20828;-69
2021/11/10 01:42:04;;;;;;;14.97;12.47;;;6.40;99.90;;;;;;5119614;28;20457;-68
2021/11/10 01:44:38;;;;;;;28.33;13.20;;;6.40;99.90;;;;;;5119039;28;20452;-68
2021/11/10 01:47:08;;;;;;;16.10;12.37;;;6.40;99.90;;;;;;5119458;28;20482;-68
2021/11/10 01:49:34;;;;;;;15.67;13.17;;;6.40;99.90;;;;;;5119425;28;20463;-68
2021/11/10 01:52:02;;;;;;;18.30;13.33;;;6.30;99.90;;;;;;5118802;28;20453;-70
2021/11/10 01:54:31;;;;;;;17.90;12.97;;;6.30;99.90;;;;;;5119188;27;20457;-68
2021/11/10 01:56:59;;;;;;;14.60;12.50;;;6.30;99.90;;;;;;5119201;28;20458;-68
2021/11/10 01:59:33;;;;;;;14.20;12.20;;;6.30;99.90;;;;;;5119099;27;20453;-68
2021/11/10 02:02:01;;;;;;;14.57;12.20;;;6.30;99.90;;;;;;5117646;28;20524;-68
2021/11/10 02:04:29;;;;;;;20.40;12.57;;;6.30;99.90;;;;;;5118788;28;20462;-68
2021/11/10 02:06:56;;;;;;;15.83;12.50;;;6.30;99.90;;;;;;5118649;28;20458;-68
2021/11/10 02:09:24;;;;;;;16.23;12.37;;;6.30;99.90;;;;;;5119029;27;20458;-68
2021/11/10 02:11:52;;;;;;;20.40;12.10;;;6.20;99.90;;;;;;5118799;28;20789;-68
2021/11/10 02:14:19;;;;;;;19.63;12.40;;;6.20;99.90;;;;;;5119175;28;20494;-72
2021/11/10 02:16:48;;;;;;;14.60;12.07;;;6.10;99.90;;;;;;5118914;28;20458;-68
2021/11/10 02:19:15;;;;;;;16.53;12.73;;;6.00;99.90;;;;;;5118802;28;20559;-68
2021/11/10 02:21:47;;;;;;;15.93;13.50;;;6.00;99.90;;;;;;5118512;28;20777;-68
2021/11/10 02:24:14;;;;;;;17.87;12.73;;;5.90;99.90;;;;;;5118910;28;20437;-68
2021/11/10 02:26:44;;;;;;;14.03;11.63;;;5.90;99.90;;;;;;5118758;28;21010;-68
2021/11/10 02:29:12;;;;;;;17.50;11.93;;;5.80;99.90;;;;;;5118342;28;20464;-68
2021/11/10 02:31:38;;;;;;;20.30;13.63;;;5.80;99.90;;;;;;5119038;28;20464;-68
2021/11/10 02:34:06;;;;;;;15.73;12.13;;;5.80;99.90;;;;;;5118333;28;20459;-68
2021/11/10 02:36:33;;;;;;;19.00;12.23;;;5.80;99.90;;;;;;5118675;28;20779;-68
2021/11/10 02:39:06;;;;;;;19.80;12.10;;;5.90;99.90;;;;;;5118450;28;20476;-68
2021/11/10 02:41:33;;;;;;;16.00;11.77;;;5.90;99.90;;;;;;5118303;28;20464;-71
2021/11/10 02:44:00;;;;;;;21.40;12.40;;;5.80;99.90;;;;;;5118473;28;20457;-69
2021/11/10 02:46:27;;;;;;;17.37;11.90;;;5.80;99.90;;;;;;5119733;28;20453;-69
2021/11/10 02:48:54;;;;;;;17.23;11.53;;;5.80;99.90;;;;;;5118877;28;20464;-68
2021/11/10 02:51:20;;;;;;;15.67;11.53;;;5.70;99.90;;;;;;5118960;28;20458;-70
2021/11/10 02:53:47;;;;;;;20.23;12.37;;;5.70;99.90;;;;;;5118625;27;20483;-69
2021/11/10 02:56:15;;;;;;;14.63;11.80;;;5.80;99.90;;;;;;5117509;28;20507;-68
2021/11/10 02:58:42;;;;;;;19.27;13.00;;;5.80;99.90;;;;;;5118109;28;20485;-68
2021/11/10 03:01:09;;;;;;;18.37;11.83;;;5.80;99.90;;;;;;5118137;27;20484;-68
2021/11/10 03:03:36;;;;;;;17.80;12.70;;;5.70;99.90;;;;;;5118714;28;20510;-68
2021/11/10 03:06:03;;;;;;;18.30;11.40;;;5.70;99.90;;;;;;5118145;28;20533;-68
2021/11/10 03:08:31;;;;;;;13.70;11.80;;;5.60;99.90;;;;;;5118340;28;20515;-68
2021/11/10 03:10:58;;;;;;;18.80;12.70;;;5.70;99.90;;;;;;5118112;28;20464;-68
2021/11/10 03:13:26;;;;;;;15.00;11.17;;;5.70;99.90;;;;;;5118152;28;20453;-68
2021/11/10 03:15:53;;;;;;;15.00;11.57;;;5.70;99.90;;;;;;5118761;28;20932;-68
2021/11/10 03:18:21;;;;;;;18.73;11.97;;;5.70;99.90;;;;;;5118959;28;20491;-68
2021/11/10 03:20:48;;;;;;;19.57;14.20;;;5.70;99.90;;;;;;5119261;28;20788;-68
2021/11/10 03:23:18;;;;;;;21.60;12.43;;;5.70;99.90;;;;;;5118170;28;20458;-69
2021/11/10 03:25:44;;;;;;;20.70;13.57;;;5.60;99.90;;;;;;5118386;28;20455;-68
2021/11/10 03:28:11;;;;;;;17.03;12.50;;;5.60;99.90;;;;;;5118694;28;20909;-68
2021/11/10 03:30:39;;;;;;;14.90;11.17;;;5.50;99.90;;;;;;5118197;28;20453;-68
2021/11/10 03:33:06;;;;;;;18.20;12.60;;;5.50;99.90;;;;;;5118374;28;20457;-68
2021/11/10 03:35:33;;;;;;;26.40;12.57;;;5.40;99.90;;;;;;5118146;28;20498;-69
2021/11/10 03:38:00;;;;;;;16.90;13.23;;;5.40;99.90;;;;;;5118581;28;20492;-68
2021/11/10 03:40:27;;;;;;;18.90;13.47;;;5.30;99.90;;;;;;5117974;28;20453;-68
2021/11/10 03:42:54;;;;;;;20.30;14.77;;;5.30;99.90;;;;;;5117467;28;20456;-68
2021/11/10 03:45:20;;;;;;;17.93;12.70;;;5.30;99.90;;;;;;5117901;27;20905;-68
2021/11/10 03:47:49;;;;;;;18.13;12.00;;;5.20;99.90;;;;;;5117773;28;20798;-68
2021/11/10 03:50:15;;;;;;;21.97;13.50;;;5.10;99.90;;;;;;5119002;28;20782;-68
2021/11/10 03:52:42;;;;;;;19.63;13.17;;;5.10;99.90;;;;;;5118449;28;20456;-68
2021/11/10 03:55:09;;;;;;;15.70;13.57;;;5.10;99.90;;;;;;5118065;28;20796;-68
2021/11/10 03:57:36;;;;;;;17.97;12.77;;;5.10;99.90;;;;;;5117915;28;20464;-68
2021/11/10 04:00:04;;;;;;;17.53;13.10;;;5.10;99.90;;;;;;5117252;28;20480;-68
2021/11/10 04:02:30;;;;;;;22.43;13.10;;;5.20;99.90;;;;;;5118070;28;20443;-68
2021/11/10 04:04:59;;;;;;;20.10;13.37;;;5.10;99.90;;;;;;5118200;28;20468;-68
2021/11/10 04:07:25;;;;;;;17.73;13.27;;;5.20;99.90;;;;;;5117951;28;20533;-69
2021/11/10 04:09:52;;;;;;;19.10;12.93;;;5.10;99.90;;;;;;5117595;28;20449;-68
2021/11/10 04:12:21;;;;;;;18.20;14.00;;;5.10;99.90;;;;;;5118028;28;20461;-68
2021/11/10 04:14:48;;;;;;;20.60;12.73;;;5.20;99.90;;;;;;5117617;28;20939;-69
2021/11/10 04:17:15;;;;;;;22.30;13.00;;;5.20;99.90;;;;;;5117302;28;20463;-69
2021/11/10 04:19:41;;;;;;;17.80;12.40;;;5.10;99.90;;;;;;5117107;28;20538;-69
2021/11/10 04:22:09;;;;;;;21.27;13.20;;;5.10;99.90;;;;;;5117197;28;20460;-69
2021/11/10 04:24:37;;;;;;;19.90;13.10;;;5.10;99.90;;;;;;5116471;28;20449;-68
2021/11/10 04:27:04;;;;;;;16.30;13.00;;;5.10;99.90;;;;;;5116887;28;20488;-68
2021/11/10 04:29:30;;;;;;;18.27;14.10;;;5.10;99.90;;;;;;5117561;28;20463;-69
2021/11/10 04:31:57;;;;;;;25.17;14.17;;;5.10;99.90;;;;;;5117367;28;20525;-68
2021/11/10 04:34:24;;;;;;;19.30;12.70;;;5.10;99.90;;;;;;5117395;28;20913;-68
2021/11/10 04:36:50;;;;;;;25.07;14.57;;;5.00;99.90;;;;;;5117707;28;20475;-69
2021/11/10 04:39:19;;;;;;;17.83;13.90;;;5.00;99.90;;;;;;5117252;28;20974;-69
2021/11/10 04:41:45;;;;;;;17.40;13.17;;;4.90;99.90;;;;;;5118180;28;20515;-69
2021/11/10 04:44:12;;;;;;;17.93;13.90;;;4.80;99.90;;;;;;5117560;28;20467;-68
2021/11/10 04:46:39;;;;;;;17.40;13.53;;;4.80;99.90;;;;;;5117110;28;20461;-68
2021/11/10 04:49:06;;;;;;;19.30;13.87;;;4.80;99.90;;;;;;5116902;28;20454;-69
2021/11/10 04:51:33;;;;;;;21.80;12.93;;;4.90;99.90;;;;;;5117148;28;20510;-68
2021/11/10 04:54:07;;;;;;;20.07;13.40;;;4.90;99.90;;;;;;5116386;28;20441;-68
2021/11/10 04:56:37;;;;;;;19.03;13.80;;;5.00;99.90;;;;;;5116631;28;20472;-69
2021/11/10 04:59:06;;;;;;;18.23;12.50;;;5.00;99.90;;;;;;5116553;28;20850;-68
2021/11/10 05:01:38;;;;;;;24.23;12.80;;;4.90;99.90;;;;;;5116746;28;20591;-68
2021/11/10 05:04:05;;;;;;;20.10;13.97;;;4.90;99.90;;;;;;5116458;28;20437;-68
2021/11/10 05:06:32;;;;;;;16.40;12.10;;;4.90;99.90;;;;;;5116540;28;20596;-68
2021/11/10 05:08:59;;;;;;;18.10;13.17;;;4.90;99.90;;;;;;5117026;28;20467;-68
2021/11/10 05:11:25;;;;;;;18.90;12.50;;;4.90;99.90;;;;;;5117550;28;20521;-68
2021/11/10 05:13:56;;;;;;;21.10;13.07;;;4.90;99.90;;;;;;5116976;28;20466;-68
2021/11/10 05:16:25;;;;;;;18.90;13.60;;;4.90;99.90;;;;;;5116981;28;20452;-68
2021/11/10 05:18:52;;;;;;;19.90;13.13;;;4.90;99.90;;;;;;5117631;28;20491;-68
2021/11/10 05:21:19;;;;;;;20.43;14.50;;;4.90;99.90;;;;;;5117388;28;20473;-68
2021/11/10 05:23:46;;;;;;;19.07;12.60;;;4.90;99.90;;;;;;5117040;28;20456;-68
2021/11/10 05:26:12;;;;;;;19.90;13.17;;;4.90;99.90;;;;;;5117405;28;20513;-69
2021/11/10 05:28:39;;;;;;;19.60;14.87;;;4.90;99.90;;;;;;5117551;28;20445;-68
2021/11/10 05:31:07;;;;;;;28.73;15.27;;;4.90;99.90;;;;;;5117145;28;20504;-69
2021/11/10 05:33:34;;;;;;;18.13;13.30;;;4.90;99.90;;;;;;5116980;28;20518;-68
2021/11/10 05:36:01;;;;;;;18.40;13.87;;;4.90;99.90;;;;;;5117177;28;20471;-69
2021/11/10 05:38:28;;;;;;;24.33;14.83;;;4.80;99.90;;;;;;5119520;28;20481;-68
2021/11/10 05:40:55;;;;;;;19.70;13.07;;;4.80;99.90;;;;;;5120728;28;20737;-70
2021/11/10 05:43:22;;;;;;;19.10;13.43;;;4.90;99.90;;;;;;5120035;28;20909;-69
2021/11/10 05:45:48;;;;;;;19.17;13.40;;;5.00;99.90;;;;;;5119911;28;20483;-70
2021/11/10 05:48:17;;;;;;;18.13;13.57;;;5.00;99.90;;;;;;5119867;28;20524;-68
2021/11/10 05:50:43;;;;;;;17.90;12.33;;;5.00;99.90;;;;;;5120155;28;20457;-68
2021/11/10 05:53:10;;;;;;;21.73;13.97;;;5.10;99.90;;;;;;5119669;28;20530;-68
2021/11/10 05:55:38;;;;;;;16.43;12.67;;;5.10;99.90;;;;;;5119509;28;20919;-68
2021/11/10 05:58:05;;;;;;;18.27;12.97;;;5.10;99.90;;;;;;5119837;28;20503;-69
2021/11/10 06:00:32;;;;;;;19.77;13.90;;;5.00;99.90;;;;;;5119447;28;20491;-69
2021/11/10 06:02:59;;;;;;;23.33;14.07;;;5.00;99.90;;;;;;5120200;27;20771;-69
2021/11/10 06:05:27;;;;;;;17.77;12.70;;;5.00;99.90;;;;;;5120281;28;20480;-70
2021/11/10 06:07:54;;;;;;;18.67;14.37;;;4.90;99.90;;;;;;5120147;28;20545;-68
2021/11/10 06:10:21;;;;;;;22.63;15.67;;;4.90;99.90;;;;;;5120623;28;20912;-69
2021/11/10 06:12:50;;;;;;;23.63;14.97;;;4.80;99.90;;;;;;5119982;28;20764;-69
2021/11/10 06:15:17;;;;;;;22.20;15.40;;;4.80;99.90;;;;;;5120049;28;20528;-68
2021/11/10 06:17:44;;;;;;;20.27;13.10;;;4.90;99.90;;;;;;5120044;28;20472;-68
2021/11/10 06:20:11;;;;;;;19.93;14.03;;;4.90;99.90;;;;;;5119778;28;20510;-68
2021/11/10 06:22:40;;;;;;;18.70;14.30;;;4.90;99.90;;;;;;5120273;28;20920;-68
2021/11/10 06:25:08;;;;;;;25.50;14.83;;;4.90;99.90;;;;;;5120353;28;20514;-68
2021/11/10 06:27:35;;;;;;;20.57;14.70;;;4.90;99.90;;;;;;5120169;28;20486;-68
2021/11/10 06:30:02;;;;;;;18.30;14.00;;;5.00;99.90;;;;;;5120645;28;20484;-68
2021/11/10 06:32:29;;;;;;;23.10;14.20;;;5.00;99.90;;;;;;5120617;28;20574;-69
2021/11/10 06:34:55;;;;;;;24.83;14.40;;;5.00;99.90;;;;;;5120301;28;20453;-70
2021/11/10 06:37:22;;;;;;;26.87;15.03;;;4.90;99.90;;;;;;5119450;28;20513;-69
2021/11/10 06:39:51;;;;;;;24.50;14.97;;;4.90;99.90;;;;;;5119393;28;20606;-69
2021/11/10 06:42:17;;;;;;;25.27;15.57;;;4.90;99.90;;;;;;5119376;28;20467;-68
2021/11/10 06:44:44;;;;;;;24.77;16.10;;;4.90;99.90;;;;;;5119370;27;20453;-69
2021/11/10 06:47:11;;;;;;;28.60;14.30;;;4.90;99.90;;;;;;5119718;28;20457;-68
2021/11/10 06:49:38;;;;;;;21.33;14.40;;;4.90;99.90;;;;;;5119142;28;20513;-69
2021/11/10 06:52:06;;;;;;;20.47;15.20;;;5.00;99.90;;;;;;5119766;28;20460;-69
2021/11/10 06:54:33;;;;;;;20.13;14.73;;;5.10;99.90;;;;;;5120361;28;20448;-69
2021/11/10 06:57:01;;;;;;;23.47;14.93;;;5.10;99.90;;;;;;5119252;28;20487;-69
2021/11/10 06:59:28;;;;;;;23.57;15.63;;;5.10;99.90;;;;;;5119223;28;20480;-68
2021/11/10 07:01:55;;;;;;;23.47;15.30;;;5.10;99.90;;;;;;5118153;28;20487;-69
2021/11/10 07:04:21;;;;;;;31.20;15.77;;;5.20;99.90;;;;;;5119723;28;20517;-69
2021/11/10 07:06:48;;;;;;;21.87;14.50;;;5.20;99.90;;;;;;5119472;28;20496;-69
2021/11/10 07:09:15;;;;;;;29.37;15.90;;;5.30;99.90;;;;;;5118438;28;20456;-68
2021/11/10 07:11:41;;;;;;;19.03;14.87;;;5.20;99.90;;;;;;5118967;28;20518;-69
2021/11/10 07:14:10;;;;;;;20.37;13.83;;;5.20;99.90;;;;;;5119278;28;20475;-68
2021/11/10 07:16:37;;;;;;;23.07;15.47;;;5.20;99.90;;;;;;5118714;28;20458;-68
2021/11/10 07:19:05;;;;;;;20.53;14.63;;;5.20;99.90;;;;;;5117434;28;20488;-69
2021/11/10 07:21:32;;;;;;;34.23;14.17;;;5.30;99.90;;;;;;5118029;28;20473;-69
2021/11/10 07:23:59;;;;;;;28.17;14.33;;;5.30;99.90;;;;;;5117329;28;20783;-69
2021/11/10 07:26:26;;;;;;;37.20;21.47;;;5.30;99.90;;;;;;5118415;28;20569;-69
2021/11/10 07:28:53;;;;;;;46.47;25.47;;;5.30;99.90;;;;;;5119258;28;20456;-68
2021/11/10 07:31:21;;;;;;;22.03;14.83;;;5.20;99.90;;;;;;5119222;28;20457;-68
2021/11/10 07:33:48;;;;;;;22.30;15.37;;;5.20;99.90;;;;;;5119349;28;20457;-69
2021/11/10 07:36:15;;;;;;;20.60;14.90;;;5.20;99.90;;;;;;5119240;28;20468;-69
2021/11/10 07:38:41;;;;;;;27.17;15.30;;;5.20;99.90;;;;;;5118292;28;20487;-68
2021/11/10 07:41:11;;;;;;;21.33;14.50;;;5.20;99.90;;;;;;5119312;28;20456;-70
2021/11/10 07:43:38;;;;;;;29.33;14.87;;;5.20;99.90;;;;;;5117875;28;20453;-69
2021/11/10 07:46:10;;;;;;;24.50;17.53;;;5.20;99.90;;;;;;5118937;28;20460;-69
2021/11/10 07:48:39;;;;;;;24.53;15.63;;;5.20;99.90;;;;;;5118473;28;20507;-68
2021/11/10 07:51:06;;;;;;;22.57;16.43;;;5.30;99.90;;;;;;5118737;28;20459;-68
2021/11/10 07:53:33;;;;;;;21.03;15.77;;;5.40;99.90;;;;;;5119172;28;20468;-68
2021/11/10 07:56:00;;;;;;;25.30;16.60;;;5.40;99.90;;;;;;5119070;28;20453;-69
2021/11/10 07:58:26;;;;;;;21.53;14.90;;;5.40;99.90;;;;;;5118937;27;20522;-69
2021/11/10 08:00:53;;;;;;;23.97;14.57;;;5.40;99.90;;;;;;5118176;28;20491;-69
2021/11/10 08:03:20;;;;;;;24.37;15.87;;;5.50;99.90;;;;;;5119018;28;20458;-69
2021/11/10 08:05:48;;;;;;;21.90;15.97;;;5.50;99.90;;;;;;5118835;28;20926;-69
2021/11/10 08:08:15;;;;;;;21.63;14.67;;;5.60;99.90;;;;;;5118941;28;20461;-69
2021/11/10 08:10:46;;;;;;;26.70;14.90;;;5.60;99.90;;;;;;5118401;28;20458;-69
2021/11/10 08:13:12;;;;;;;20.10;15.00;;;5.60;99.90;;;;;;5118734;28;20501;-69
2021/11/10 08:15:39;;;;;;;20.03;14.53;;;5.70;99.90;;;;;;5117096;28;20513;-69
2021/11/10 08:18:06;;;;;;;21.90;14.67;;;5.80;99.90;;;;;;5117055;28;20763;-70
2021/11/10 08:20:33;;;;;;;24.63;13.50;;;5.90;99.90;;;;;;5116876;28;20482;-69
2021/11/10 08:23:01;;;;;;;21.77;14.83;;;6.00;99.90;;;;;;5116525;28;20457;-69
2021/11/10 08:25:27;;;;;;;21.10;15.10;;;6.10;99.90;;;;;;5117100;28;20454;-69
2021/11/10 08:27:55;;;;;;;20.73;14.93;;;6.20;99.90;;;;;;5116673;28;20463;-68
2021/11/10 08:30:23;;;;;;;20.50;15.17;;;6.30;99.90;;;;;;5117253;28;20473;-70
2021/11/10 08:32:52;;;;;;;24.07;13.67;;;6.30;99.90;;;;;;5116595;28;20563;-69
2021/11/10 08:35:19;;;;;;;22.13;15.23;;;6.40;99.90;;;;;;5117488;28;20470;-69
2021/11/10 08:37:47;;;;;;;19.30;14.23;;;6.50;99.90;;;;;;5117227;28;20459;-69
2021/11/10 08:40:15;;;;;;;18.77;14.23;;;6.50;99.90;;;;;;5116880;28;20475;-68
2021/11/10 08:42:42;;;;;;;21.40;13.10;;;6.60;99.90;;;;;;5116694;28;20454;-68
2021/11/10 08:45:12;;;;;;;16.50;12.57;;;6.60;99.90;;;;;;5116886;28;20937;-68
2021/11/10 08:47:41;;;;;;;19.17;13.20;;;6.60;99.90;;;;;;5118324;28;20481;-68
2021/11/10 08:50:09;;;;;;;18.23;13.27;;;6.60;99.90;;;;;;5117721;28;20461;-69
2021/11/10 08:52:37;;;;;;;24.50;14.10;;;6.60;99.90;;;;;;5116913;28;20817;-69
2021/11/10 08:55:06;;;;;;;21.47;13.03;;;6.70;99.90;;;;;;5116867;28;20480;-69
2021/11/10 08:57:35;;;;;;;23.93;13.87;;;6.70;99.90;;;;;;5116539;28;20454;-69
2021/11/10 09:00:01;;;;;;;19.90;14.37;;;6.80;99.90;;;;;;5117016;28;20843;-69
2021/11/10 09:02:28;;;;;;;16.87;13.23;;;6.80;99.90;;;;;;5116778;28;20455;-69
2021/11/10 09:04:55;;;;;;;17.10;13.70;;;6.80;99.90;;;;;;5117839;28;20468;-68
2021/11/10 09:07:22;;;;;;;17.30;13.90;;;6.80;99.90;;;;;;5117565;28;20457;-69
2021/11/10 09:09:56;;;;;;;20.83;14.10;;;6.80;99.90;;;;;;5117991;28;20457;-68
2021/11/10 09:12:24;;;;;;;20.73;14.00;;;6.80;99.90;;;;;;5121648;28;20768;-69
2021/11/10 09:14:52;;;;;;;19.20;13.77;;;6.90;99.90;;;;;;5122937;28;20465;-68
2021/11/10 09:17:19;;;;;;;25.13;15.00;;;6.90;99.90;;;;;;5121585;28;20455;-69
2021/11/10 09:19:46;;;;;;;16.63;13.87;;;7.00;99.90;;;;;;5120951;28;20479;-69
2021/11/10 09:22:12;;;;;;;19.10;14.40;;;7.10;99.90;;;;;;5121423;28;20903;-68
2021/11/10 09:24:39;;;;;;;17.50;14.07;;;7.20;99.90;;;;;;5120397;28;20457;-69
2021/11/10 09:27:06;;;;;;;18.33;13.43;;;7.30;99.90;;;;;;5120149;28;20466;-68
2021/11/10 09:29:34;;;;;;;17.10;14.00;;;7.40;99.90;;;;;;5121098;28;20538;-68
2021/11/10 09:32:02;;;;;;;21.70;14.07;;;7.40;99.90;;;;;;5121827;28;20536;-69
2021/11/10 09:34:28;;;;;;;21.03;14.20;;;7.40;99.90;;;;;;5120746;28;20816;-69
2021/11/10 09:36:55;;;;;;;23.60;15.70;;;7.50;99.90;;;;;;5120601;28;20461;-69
2021/11/10 09:39:24;;;;;;;20.53;14.70;;;7.60;99.90;;;;;;5120597;28;20456;-68
2021/11/10 09:41:54;;;;;;;21.30;13.40;;;7.70;99.90;;;;;;5119703;28;20452;-70
2021/11/10 09:44:22;;;;;;;21.30;13.33;;;7.80;99.90;;;;;;5120444;28;20540;-69
2021/11/10 09:46:50;;;;;;;21.80;13.30;;;7.90;99.90;;;;;;5121003;28;20452;-69
2021/11/10 09:49:19;;;;;;;19.80;13.57;;;8.00;99.90;;;;;;5120729;28;20467;-69
2021/11/10 09:51:47;;;;;;;16.00;12.70;;;8.10;99.90;;;;;;5120069;28;20475;-69
2021/11/10 09:54:14;;;;;;;16.50;13.30;;;8.20;99.90;;;;;;5120402;28;20846;-71
2021/11/10 09:56:42;;;;;;;21.07;14.70;;;8.20;99.90;;;;;;5119265;28;20455;-69
2021/11/10 09:59:10;;;;;;;16.10;12.33;;;8.20;99.90;;;;;;5117996;28;20769;-70
2021/11/10 10:01:39;;;;;;;17.63;12.10;;;8.30;99.90;;;;;;5117172;27;20492;-68
2021/11/10 10:04:08;;;;;;;16.33;11.33;;;8.40;99.90;;;;;;5117592;28;20459;-68
2021/11/10 10:06:37;;;;;;;14.70;10.37;;;8.60;99.90;;;;;;5117601;28;20454;-68
2021/11/10 10:09:04;;;;;;;15.87;11.27;;;8.70;99.90;;;;;;5117237;28;20456;-68
2021/11/10 10:11:34;;;;;;;17.33;12.17;;;8.80;99.90;;;;;;5117630;28;20545;-69
2021/11/10 10:14:03;;;;;;;18.47;11.43;;;8.90;99.90;;;;;;5117628;28;20517;-68
2021/11/10 10:16:31;;;;;;;18.27;12.03;;;8.90;99.90;;;;;;5117477;28;20479;-68
2021/11/10 10:19:12;;;;;;;13.80;10.37;;;8.90;99.90;;;;;;5117387;28;20495;-68
2021/11/10 10:21:41;;;;;;;15.27;10.87;;;9.00;99.90;;;;;;5117220;28;20469;-69
2021/11/10 10:24:10;;;;;;;14.97;11.17;;;9.10;99.90;;;;;;5116442;28;20460;-68
2021/11/10 10:26:37;;;;;;;14.27;10.47;;;9.10;99.90;;;;;;5117325;28;20471;-68
2021/11/10 10:29:09;;;;;;;12.90;10.40;;;9.30;99.90;;;;;;5119297;28;20466;-68
2021/11/10 10:31:37;;;;;;;12.87;10.50;;;9.40;99.90;;;;;;5116974;28;20486;-67
2021/11/10 10:34:08;;;;;;;12.60;10.70;;;9.40;99.90;;;;;;5117374;28;20467;-69
2021/11/10 10:36:39;;;;;;;11.77;10.13;;;9.50;99.90;;;;;;5116967;27;20437;-69
2021/11/10 10:39:10;;;;;;;16.23;10.97;;;9.60;99.90;;;;;;5116870;28;20905;-68
2021/11/10 10:41:38;;;;;;;15.83;11.27;;;9.60;99.90;;;;;;5116489;27;20464;-69
2021/11/10 10:44:07;;;;;;;17.17;10.73;;;9.70;99.90;;;;;;5116772;28;20835;-68
2021/11/10 10:46:37;;;;;;;15.90;11.57;;;9.60;99.90;;;;;;5116501;28;20460;-69
2021/11/10 10:49:15;;;;;;;15.30;10.97;;;9.70;99.90;;;;;;5116794;28;20444;-67
2021/11/10 10:51:43;;;;;;;19.40;13.53;;;9.70;99.90;;;;;;5116796;28;20456;-68
2021/11/10 10:54:12;;;;;;;17.20;12.50;;;9.80;99.90;;;;;;5116755;28;20460;-69
2021/11/10 10:56:42;;;;;;;21.10;15.87;;;9.90;99.90;;;;;;5116601;28;20452;-68
2021/11/10 10:59:12;;;;;;;14.03;10.40;;;10.00;99.90;;;;;;5116754;28;20465;-69
2021/11/10 11:01:41;;;;;;;12.17;10.30;;;10.00;99.90;;;;;;5115782;28;20483;-68
2021/11/10 11:04:09;;;;;;;15.67;11.00;;;10.10;99.90;;;;;;5116308;27;20503;-68
2021/11/10 11:06:40;;;;;;;27.00;11.80;;;10.20;99.90;;;;;;5116246;28;20909;-68
2021/11/10 11:09:21;;;;;;;24.70;11.83;;;10.20;99.90;;;;;;5116042;28;20444;-68
2021/11/10 11:12:00;;;;;;;17.87;11.47;;;10.40;99.90;;;;;;5116203;28;20444;-67
2021/11/10 11:14:42;;;;;;;15.00;10.80;;;10.40;99.90;;;;;;5115993;28;20448;-68
2021/11/10 11:17:26;;;;;;;15.30;11.13;;;10.40;99.90;;;;;;5116327;28;20451;-68
2021/11/10 11:19:56;;;;;;;11.47;10.20;;;10.40;99.90;;;;;;5114202;28;20460;-69
2021/11/10 11:22:24;;;;;;;13.67;9.93;;;10.30;99.90;;;;;;5117044;28;20478;-70
2021/11/10 11:24:52;;;;;;;17.20;10.60;;;10.30;99.90;;;;;;5116591;28;20475;-69
2021/11/10 11:27:28;;;;;;;13.10;9.70;;;10.30;99.90;;;;;;5117571;28;20776;-68
2021/11/10 11:30:02;;;;;;;13.77;10.97;;;10.40;99.90;;;;;;5115935;28;20448;-68
2021/11/10 11:32:31;;;;;;;15.07;10.43;;;10.50;99.90;;;;;;5116176;28;20435;-67
2021/11/10 11:35:03;;;;;;;17.10;11.40;;;10.60;99.90;;;;;;5114974;28;20900;-68
2021/11/10 11:37:31;;;;;;;17.77;13.57;;;10.60;99.90;;;;;;5116057;28;20523;-69
2021/11/10 11:40:05;;;;;;;15.23;11.50;;;10.70;99.90;;;;;;5117548;28;20449;-68
2021/11/10 11:42:32;;;;;;;22.27;12.93;;;10.70;99.90;;;;;;5118803;28;20437;-69
2021/11/10 11:44:59;;;;;;;16.33;11.77;;;10.60;99.90;;;;;;5117763;28;20454;-69
2021/11/10 11:47:29;;;;;;;15.07;11.00;;;10.80;99.90;;;;;;5117276;28;20868;-69
2021/11/10 11:50:02;;;;;;;17.37;11.00;;;11.00;99.90;;;;;;5116694;28;20905;-69
2021/11/10 11:52:29;;;;;;;14.73;10.73;;;11.50;99.90;;;;;;5115934;28;20439;-69
2021/11/10 11:55:06;;;;;;;17.30;10.70;;;12.10;99.90;;;;;;5116100;28;20468;-68
2021/11/10 11:57:33;;;;;;;14.63;10.50;;;12.70;99.90;;;;;;5115200;28;20440;-68
2021/11/10 12:00:01;;;;;;;20.17;12.23;;;13.50;99.90;;;;;;5114691;28;20485;-68
2021/11/10 12:02:31;;;;;;;15.57;12.03;;;14.10;99.90;;;;;;5114930;28;20441;-68
2021/11/10 12:04:59;;;;;;;14.57;11.70;;;14.50;99.90;;;;;;5115805;28;20426;-68
2021/11/10 12:07:42;;;;;;;17.83;11.50;;;14.30;99.90;;;;;;5115187;28;20487;-68
2021/11/10 12:10:28;;;;;;;15.30;11.97;;;14.60;92.20;;;;;;5114930;28;20440;-68
2021/11/10 12:13:17;;;;;;;15.20;11.20;;;14.90;76.10;;;;;;5115067;28;20488;-69
2021/11/10 12:16:15;;;;;;;15.83;12.40;;;15.30;59.60;;;;;;5114956;28;20456;-68
2021/11/10 12:18:44;;;;;;;16.63;12.93;;;15.70;37.10;;;;;;5115052;28;20841;-68
2021/11/10 12:21:12;;;;;;;16.23;12.50;;;15.60;26.90;;;;;;5115070;28;20480;-68
2021/11/10 12:24:11;;;;;;;16.07;12.53;;;15.60;20.00;;;;;;5115094;28;20453;-68
2021/11/10 12:27:11;;;;;;;16.60;12.30;;;15.40;14.50;;;;;;5115028;28;20457;-67
2021/11/10 12:29:58;;;;;;;17.53;12.63;;;15.20;9.40;;;;;;5115823;28;20438;-68
2021/11/10 12:32:46;;;;;;;15.13;12.20;;;14.80;6.60;;;;;;5115318;28;20432;-67
2021/11/10 12:35:22;;;;;;;12.97;11.57;;;14.40;7.60;;;;;;5115146;28;20789;-68
2021/11/10 12:37:51;;;;;;;16.67;13.03;;;13.90;5.40;;;;;;5115080;28;20447;-68
2021/11/10 12:40:21;;;;;;;17.57;12.53;;;13.30;8.40;;;;;;5115071;28;20460;-68
2021/11/10 12:42:54;;;;;;;15.57;11.60;;;13.30;15.70;;;;;;5114940;28;20967;-68